^^
Datos históricos de la estación: Murcia-Puente Tocinos
Diario Informe para Noviembre 28, 2019 Unidades:  Ingés    Métrico   Ambas
Diario Semanal Mensual Anual
  Máxima: Mínima: Promedio:
Temperatura: 69.8 °F 49.6 °F 59.2 °F
Punto de rocio: 51.4 °F 42.3 °F 45.7 °F
Humedad: 76% 44% 62%
Velocidad viento: 6.2mph 0mph 3.2mph
Racha viento: 12mph - -
Viento- - SSO
Presión: 30.1 in 29.9 in -
Precipitación: 0 in    
 
 
Tabla de datos para Noviembre 28, 2019
Hora Temperatura Punto de rocio Presión Viento Velocidad viento Racha viento Humedad Intensidad lluvia(por hora) Nubes
00:04 57 °F 43.7 °F 29.9 in Sur 2.7 mph 4 mph 61% 0 in
00:09 57 °F 44.1 °F 29.9 in Sur 2.4 mph 3.1 mph 61.8% 0 in
00:14 57 °F 43.9 °F 29.9 in Sur 1.7 mph 3.5 mph 61.6% 0 in
00:19 57 °F 44.1 °F 29.9 in Sur 1.4 mph 4.6 mph 61.8% 0 in
00:24 56.8 °F 44.1 °F 29.9 in SSO 2.1 mph 5 mph 62% 0 in
00:29 56.8 °F 44.2 °F 29.9 in Oeste 2.4 mph 5 mph 62.4% 0 in
00:34 56.5 °F 44.2 °F 29.9 in Oeste 2.1 mph 4 mph 63.3% 0 in
00:39 55.9 °F 44.1 °F 30 in ONO 2 mph 4.6 mph 64.3% 0 in
00:44 55.4 °F 44.1 °F 30 in Oeste 2.3 mph 5 mph 65.5% 0 in
00:49 55.2 °F 44.1 °F 30 in SO 2.4 mph 5.2 mph 66% 0 in
00:54 55.4 °F 44.2 °F 30 in SO 2.9 mph 5 mph 66% 0 in
00:59 55.6 °F 44.1 °F 29.9 in SO 3.1 mph 5.2 mph 65.2% 0 in
01:04 55.8 °F 44.1 °F 29.9 in OSO 3 mph 5.8 mph 64.6% 0 in
01:09 55.9 °F 43.9 °F 30 in SO 2.9 mph 6 mph 64% 0 in
01:14 55.9 °F 43.7 °F 30 in SO 3.4 mph 6 mph 63.1% 0 in
01:19 56.1 °F 44.1 °F 30 in Sur 3.6 mph 5.8 mph 64% 0 in
01:24 55.8 °F 43.7 °F 30 in SSE 3.1 mph 6.2 mph 64.1% 0 in
01:29 55.2 °F 43.3 °F 29.9 in Sur 2.9 mph 6.9 mph 64.3% 0 in
01:34 55.2 °F 43.2 °F 29.9 in Sur 3.9 mph 7.4 mph 64.1% 0 in
01:39 55 °F 43.2 °F 29.9 in SSO 4.3 mph 8.1 mph 64% 0 in
01:44 55 °F 43.2 °F 29.9 in Sur 4.6 mph 8 mph 64% 0 in
01:49 55 °F 43.2 °F 29.9 in Sur 4.7 mph 7 mph 64% 0 in
01:54 55 °F 43.2 °F 29.9 in SSO 4.4 mph 6.9 mph 64% 0 in
01:59 55 °F 43.2 °F 29.9 in SSO 4.3 mph 7 mph 64% 0 in
02:04 55 °F 43.2 °F 29.9 in SSO 4.3 mph 8.1 mph 64% 0 in
02:09 55 °F 43 °F 30 in SSO 4.3 mph 8 mph 63.5% 0 in
02:14 55 °F 42.8 °F 30 in SSO 4.6 mph 7.4 mph 63% 0 in
02:19 55.2 °F 42.8 °F 30 in SSO 4.7 mph 7.4 mph 63% 0 in
02:24 55.4 °F 42.6 °F 30 in SSO 4.7 mph 8.1 mph 62.3% 0 in
02:29 55.6 °F 42.8 °F 29.9 in Sur 4.7 mph 8 mph 62% 0 in
02:34 55.8 °F 42.8 °F 29.9 in Sur 4.7 mph 8.5 mph 61.8% 0 in
02:39 55.8 °F 42.8 °F 29.9 in SE 4.7 mph 9 mph 61.7% 0 in
02:44 55.6 °F 42.8 °F 29.9 in SE 3.9 mph 6 mph 62% 0 in
02:49 55.2 °F 42.8 °F 29.9 in Sur 3.6 mph 6.2 mph 62.9% 0 in
02:54 55.2 °F 42.8 °F 29.9 in Sur 3.9 mph 6.9 mph 63% 0 in
02:59 55 °F 42.8 °F 29.9 in SSE 4 mph 7.4 mph 63% 0 in
03:04 55 °F 42.6 °F 29.9 in SSE 4.8 mph 7.4 mph 63% 0 in
03:09 54.9 °F 42.6 °F 29.9 in SSE 5.2 mph 7 mph 63.6% 0 in
03:14 54.5 °F 42.6 °F 29.9 in Oeste 3.7 mph 6 mph 64.3% 0 in
03:19 54 °F 42.6 °F 29.9 in OSO 3.1 mph 5 mph 65.3% 0 in
03:24 53.8 °F 42.8 °F 29.9 in SO 3 mph 5 mph 66% 0 in
03:29 53.4 °F 42.6 °F 29.9 in NO 2.9 mph 5 mph 66.8% 0 in
03:34 52.9 °F 42.4 °F 29.9 in NO 2.9 mph 6.2 mph 68% 0 in
03:39 52.2 °F 42.4 °F 29.9 in ONO 2.9 mph 6 mph 69.4% 0 in
03:44 51.8 °F 42.4 °F 29.9 in OSO 2.5 mph 4 mph 70.2% 0 in
03:49 51.6 °F 42.4 °F 29.9 in ONO 2.4 mph 4.7 mph 71% 0 in
03:54 51.3 °F 42.3 °F 30 in NNO 2.1 mph 5.9 mph 71.5% 0 in
03:59 50.5 °F 42.3 °F 30 in NNO 2 mph 6 mph 72.9% 0 in
04:04 50.2 °F 42.3 °F 30 in NO 3.2 mph 5.2 mph 74.2% 0 in
04:09 50.2 °F 42.6 °F 30 in NO 3.6 mph 5 mph 75% 0 in
04:14 50.4 °F 42.6 °F 29.9 in Oeste 3.1 mph 5 mph 74.6% 0 in
04:19 50.7 °F 42.6 °F 29.9 in OSO 2.9 mph 5.9 mph 73.9% 0 in
04:24 51.4 °F 42.8 °F 30 in OSO 3.4 mph 6.2 mph 72.3% 0 in
04:29 52 °F 42.8 °F 30 in OSO 3.6 mph 6.2 mph 70.7% 0 in
04:34 52.3 °F 42.8 °F 30 in SO 3.9 mph 6.2 mph 69.5% 0 in
04:39 53.1 °F 42.8 °F 30 in OSO 4 mph 6 mph 68.3% 0 in
04:44 53.2 °F 42.6 °F 30 in OSO 3.7 mph 5 mph 67.2% 0 in
04:49 53.4 °F 42.6 °F 30 in Oeste 3.6 mph 5.9 mph 67% 0 in
04:54 53.4 °F 42.6 °F 30 in SO 3.6 mph 6 mph 67% 0 in
04:59 53.4 °F 42.6 °F 30 in OSO 3.6 mph 6.2 mph 66.8% 0 in
05:04 53.4 °F 42.3 °F 30 in OSO 3.9 mph 7.4 mph 66% 0 in
05:09 53.4 °F 42.3 °F 30 in OSO 4 mph 7 mph 66% 0 in
05:14 53.4 °F 42.4 °F 30 in SO 3.7 mph 6 mph 66.2% 0 in
05:19 53.4 °F 42.6 °F 30 in SO 3.6 mph 5 mph 67% 0 in
05:24 53.4 °F 42.6 °F 30 in SO 2.5 mph 4 mph 67% 0 in
05:29 53.4 °F 42.6 °F 30 in SO 2 mph 3.6 mph 67% 0 in
05:34 53.2 °F 42.6 °F 30 in Oeste 2 mph 4.6 mph 67% 0 in
05:39 53.1 °F 42.6 °F 30 in Oeste 2 mph 5 mph 67.6% 0 in
05:44 52.9 °F 42.6 °F 30 in OSO 2 mph 5 mph 68% 0 in
05:49 52.9 °F 42.6 °F 30 in OSO 2 mph 5 mph 68% 0 in
05:54 52.9 °F 42.6 °F 30 in OSO 1.9 mph 4 mph 68% 0 in
05:59 52.9 °F 42.6 °F 30 in OSO 1.8 mph 2.4 mph 68.3% 0 in
06:04 52.5 °F 42.6 °F 30 in OSO 0.5 mph 2 mph 69% 0 in
06:09 52.3 °F 42.8 °F 30 in Calm     69.8% 0 in
06:14 52.3 °F 43.2 °F 30 in Calm   2.9 mph 70.7% 0 in
06:19 52.3 °F 43.2 °F 30 in Calm   4 mph 71% 0 in
06:24 52.2 °F 42.8 °F 30 in SE 1.4 mph 5.2 mph 70.7% 0 in
06:29 51.6 °F 42.6 °F 30 in SE 2 mph 5.2 mph 71.4% 0 in
06:34 51.4 °F 42.6 °F 30 in SE 2.8 mph 5 mph 72% 0 in
06:39 51.4 °F 42.6 °F 30 in SE 3.1 mph 5 mph 72% 0 in
06:44 51.4 °F 42.6 °F 30 in SE 2.2 mph 5 mph 72% 0 in
06:49 51.4 °F 42.8 °F 30 in SSE 1.8 mph 5 mph 72% 0 in
06:54 51.6 °F 43 °F 30 in SO 2.5 mph 5 mph 72% 0 in
06:59 51.8 °F 43 °F 30 in OSO 2.9 mph 5 mph 71.7% 0 in
07:04 52 °F 43 °F 30 in OSO 2.5 mph 5 mph 71% 0 in
07:09 51.8 °F 42.8 °F 30 in Oeste 2.4 mph 5 mph 71.1% 0 in
07:14 51.6 °F 43 °F 30 in OSO 2.7 mph 5.2 mph 72% 0 in
07:19 51.6 °F 42.8 °F 30 in OSO 2.9 mph 5.8 mph 72% 0 in
07:24 51.6 °F 42.4 °F 30 in OSO 3 mph 6 mph 71% 0 in
07:29 51.6 °F 42.8 °F 30 in SO 3.1 mph 5.2 mph 71.5% 0 in
07:34 52 °F 43 °F 30 in SO 3 mph 5 mph 71% 0 in
07:39 52 °F 43 °F 30 in ESE 2.9 mph 5.4 mph 71% 0 in
07:44 51.3 °F 42.6 °F 30 in ESE 2.9 mph 6 mph 72.1% 0 in
07:49 50.7 °F 42.6 °F 30 in SE 2.9 mph 6.2 mph 73.4% 0 in
07:54 50.4 °F 42.6 °F 30 in SSE 2.9 mph 6.2 mph 74.7% 0 in
07:59 49.8 °F 42.6 °F 30 in Sur 2.9 mph 6.2 mph 75.8% 0 in
08:04 49.6 °F 42.4 °F 30 in SSE 3.7 mph 6.2 mph 76% 0 in
08:09 49.6 °F 42.4 °F 30 in Sur 4 mph 8.1 mph 76% 0 in
08:14 50.2 °F 42.8 °F 30 in SSO 4.8 mph 8 mph 75.6% 0 in
08:19 50.4 °F 42.8 °F 30 in SO 5.2 mph 6 mph 75% 0 in
08:24 50.5 °F 43 °F 30 in SO 3.7 mph 6 mph 74.8% 0 in
08:29 51.1 °F 43 °F 30 in OSO 3.1 mph 5.8 mph 74% 0 in
08:34 51.4 °F 43 °F 30 in Oeste 3.5 mph 6 mph 73.1% 0 in
08:39 51.4 °F 43.2 °F 30 in OSO 3.6 mph 6 mph 73% 0 in
08:44 51.6 °F 43 °F 30 in OSO 3.9 mph 6.2 mph 72.2% 0 in
08:49 52 °F 43.2 °F 30 in OSO 4 mph 6 mph 72% 0 in
08:54 52.2 °F 43.2 °F 30 in OSO 3.7 mph 6 mph 71.3% 0 in
08:59 52.5 °F 43.3 °F 30 in OSO 3.6 mph 5 mph 70.9% 0 in
09:04 53.1 °F 43.5 °F 30 in OSO 2.3 mph 4 mph 70% 0 in
09:09 53.4 °F 43.7 °F 30 in SO 1.8 mph 4.7 mph 69.8% 0 in
09:14 54 °F 43.7 °F 30 in Sur 1.9 mph 5.8 mph 68.3% 0 in
09:19 54.1 °F 43.9 °F 30 in Sur 2 mph 6 mph 68% 0 in
09:24 54.5 °F 43.9 °F 30 in SSO 2.6 mph 6.2 mph 66.9% 0 in
09:29 55 °F 43.9 °F 30 in SSO 2.9 mph 6.2 mph 66% 0 in
09:34 55.2 °F 43.9 °F 30 in SSO 3.7 mph 6.2 mph 65.6% 0 in
09:39 55.6 °F 43.9 °F 30 in SSO 4 mph 6.9 mph 64.8% 0 in
09:44 55.9 °F 43.9 °F 30 in Sur 4.2 mph 7 mph 63.9% 0 in
09:49 56.3 °F 43.9 °F 30 in Sur 4.3 mph 8.1 mph 63.1% 0 in
09:54 56.5 °F 44.1 °F 30 in Sur 4.6 mph 8.1 mph 63% 0 in
09:59 56.7 °F 44.2 °F 30 in Sur 4.7 mph 8 mph 63% 0 in
10:04 56.8 °F 44.4 °F 30 in Sur 4.7 mph 7 mph 63% 0 in
10:09 57 °F 44.6 °F 30 in SSO 4.7 mph 7 mph 63% 0 in
10:14 57.4 °F 44.8 °F 30 in SO 3.9 mph 6 mph 62.6% 0 in
10:19 57.7 °F 44.6 °F 30 in Sur 3.6 mph 6.2 mph 61.4% 0 in
10:24 58.5 °F 45.3 °F 30.1 in SSE 3.2 mph 6 mph 61.6% 0 in
10:29 58.8 °F 45.1 °F 30.1 in SSE 3.1 mph 6.2 mph 60.3% 0 in
10:34 58.8 °F 45 °F 30.1 in SSE 3.7 mph 6.2 mph 60% 0 in
10:39 59 °F 45.1 °F 30.1 in SSE 4 mph 6 mph 60% 0 in
10:44 59.4 °F 45.5 °F 30.1 in Sur 3.7 mph 6 mph 59.9% 0 in
10:49 59.5 °F 45.3 °F 30.1 in SO 3.6 mph 5 mph 59% 0 in
10:54 59.9 °F 45.7 °F 30.1 in SO 2.7 mph 5 mph 59% 0 in
10:59 60.4 °F 45.5 °F 30.1 in OSO 2.4 mph 5.2 mph 57.9% 0 in
11:04 61 °F 45.3 °F 30.1 in OSO 2.1 mph 5.8 mph 56.6% 0 in
11:09 61.3 °F 45.1 °F 30.1 in OSO 2 mph 6.2 mph 55.4% 0 in
11:14 61.7 °F 45.3 °F 30.1 in SO 3.1 mph 6 mph 54.9% 0 in
11:19 62.1 °F 45.5 °F 30.1 in OSO 3.6 mph 6 mph 54.7% 0 in
11:24 62.2 °F 45.5 °F 30.1 in Oeste 3.6 mph 8.5 mph 53.9% 0 in
11:29 62.6 °F 45.7 °F 30.1 in OSO 3.6 mph 9 mph 54% 0 in
11:34 63 °F 45.9 °F 30.1 in OSO 4.1 mph 9.2 mph 54% 0 in
11:39 63.1 °F 45.9 °F 30.1 in SO 4.3 mph 9.2 mph 53.5% 0 in
11:44 63.3 °F 45.9 °F 30.1 in SSO 4.1 mph 9 mph 53% 0 in
11:49 63.7 °F 46 °F 30.1 in OSO 4 mph 6.9 mph 52.4% 0 in
11:54 64 °F 45.7 °F 30.1 in OSO 3.2 mph 7 mph 51.6% 0 in
11:59 64.2 °F 45.7 °F 30 in Sur 2.9 mph 7 mph 51.1% 0 in
12:04 64.4 °F 45.5 °F 30 in Oeste 3.4 mph 7 mph 50.4% 0 in
12:09 64.6 °F 45.5 °F 30 in ONO 3.6 mph 7 mph 50.1% 0 in
12:14 64.9 °F 45.9 °F 30 in SO 2.5 mph 6.2 mph 50% 0 in
12:19 64.9 °F 45.9 °F 30 in Oeste 2 mph 8.7 mph 50% 0 in
12:24 65.1 °F 45.7 °F 30 in SO 3.4 mph 9.2 mph 49.2% 0 in
12:29 65.1 °F 45.7 °F 30 in SO 4 mph 7 mph 49.2% 0 in
12:34 65.1 °F 45.5 °F 30 in OSO 4 mph 6 mph 49% 0 in
12:39 65.7 °F 45.7 °F 30 in OSO 4 mph 6.9 mph 48.7% 0 in
12:44 65.7 °F 45.9 °F 30 in OSO 2.9 mph 7 mph 48.7% 0 in
12:49 65.8 °F 45.9 °F 30 in SO 2.4 mph 8.1 mph 48.5% 0 in
12:54 65.8 °F 45.7 °F 30 in SSO 4 mph 8.1 mph 48.1% 0 in
12:59 65.8 °F 45.9 °F 30 in OSO 4.7 mph 8 mph 48.3% 0 in
13:04 66.4 °F 46 °F 30 in SSE 3.5 mph 6 mph 48% 0 in
13:09 66.6 °F 46.2 °F 30 in SE 3.1 mph 6 mph 48% 0 in
13:14 66.7 °F 46 °F 30 in OSO 3 mph 5.9 mph 47.2% 0 in
13:19 66.7 °F 45.9 °F 30 in OSO 2.9 mph 6 mph 47% 0 in
13:24 66.7 °F 45.9 °F 30 in SSO 3 mph 6.9 mph 47% 0 in
13:29 66.9 °F 45.7 °F 30 in SE 3.1 mph 7 mph 46.6% 0 in
13:34 66.9 °F 45.7 °F 30 in SE 3 mph 5.8 mph 46.2% 0 in
13:39 67.3 °F 45.7 °F 30 in SE 2.9 mph 6 mph 46% 0 in
13:44 67.1 °F 45.5 °F 30 in SSE 3 mph 8.5 mph 46% 0 in
13:49 66.9 °F 46 °F 30 in SSO 3.1 mph 9 mph 47% 0 in
13:54 67.1 °F 46 °F 30 in Sur 2.6 mph 5.8 mph 46.6% 0 in
13:59 67.3 °F 45.9 °F 30 in Sur 2.4 mph 6.9 mph 46% 0 in
14:04 67.3 °F 45.9 °F 30 in SO 3.8 mph 7 mph 46% 0 in
14:09 67.5 °F 45.9 °F 30 in SSO 4.3 mph 6 mph 45.8% 0 in
14:14 67.6 °F 45.7 °F 30 in SSO 2.7 mph 5 mph 45% 0 in
14:19 68 °F 45.9 °F 30 in SO 2 mph 6.2 mph 45% 0 in
14:24 68.2 °F 46 °F 30 in OSO 2 mph 6 mph 45% 0 in
14:29 68.2 °F 45.9 °F 30 in OSO 2 mph 5 mph 44.8% 0 in
14:34 68.4 °F 45.9 °F 30 in OSO 1.9 mph 4 mph 44.6% 0 in
14:39 68.4 °F 46 °F 30 in ESE 1.8 mph 5 mph 44.7% 0 in
14:44 68.5 °F 45.9 °F 30 in SE 1.8 mph 5.2 mph 44.1% 0 in
14:49 68.5 °F 45.9 °F 30 in Sur 1.8 mph 5.2 mph 44% 0 in
14:54 68.4 °F 45.7 °F 30 in SO 2.7 mph 5 mph 44.4% 0 in
14:59 68.2 °F 46 °F 30 in Oeste 3.1 mph 5 mph 45% 0 in
15:04 68.2 °F 46 °F 30 in OSO 3 mph 5.9 mph 45% 0 in
15:09 68.4 °F 46.2 °F 30 in SSO 2.9 mph 6 mph 45% 0 in
15:14 68.5 °F 46 °F 30 in SO 2.2 mph 5.9 mph 44.5% 0 in
15:19 68.7 °F 46 °F 30 in NO 2 mph 6 mph 44.4% 0 in
15:24 68.7 °F 46 °F 30 in NNE 2 mph 5.8 mph 44.3% 0 in
15:29 68.7 °F 46.2 °F 30 in ONO 2 mph 6 mph 44.5% 0 in
15:34 68.7 °F 46.6 °F 30 in NNO 2.3 mph 6 mph 45% 0 in
15:39 69.1 °F 46.8 °F 30 in North 2.4 mph 5 mph 45% 0 in
15:44 69.3 °F 46.9 °F 30 in North 2 mph 3 mph 44.9% 0 in
15:49 69.4 °F 46.6 °F 30 in ONO 1.8 mph 4.7 mph 44% 0 in
15:54 69.4 °F 46.6 °F 30 in Oeste 1.9 mph 5 mph 44% 0 in
15:59 69.4 °F 46.8 °F 30 in NO 2 mph 3.5 mph 44.2% 0 in
16:04 69.4 °F 46.6 °F 30 in Este 1.6 mph 3 mph 44% 0 in
16:09 69.6 °F 46.8 °F 30 in SSE 1.4 mph 3.5 mph 44% 0 in
16:14 69.8 °F 46.9 °F 30 in SSO 1.7 mph 4 mph 44% 0 in
16:19 69.6 °F 46.8 °F 30 in SSO 1.8 mph 4 mph 44% 0 in
16:24 69.6 °F 46.8 °F 30 in SSO 1.5 mph 2 mph 44% 0 in
16:29 69.4 °F 47.1 °F 30 in SSO 1.4 mph 2.3 mph 44.9% 0 in
16:34 69.4 °F 47.1 °F 30 in SSO 0.4 mph 2.4 mph 44.9% 0 in
16:39 69.3 °F 47.1 °F 30 in Calm   2.3 mph 45% 0 in
16:44 69.3 °F 46.9 °F 30 in ESE 0.9 mph 4.6 mph 45% 0 in
16:49 68.9 °F 46.9 °F 30 in ESE 1.4 mph 5 mph 45.3% 0 in
16:54 68.5 °F 46.9 °F 30 in ESE 1.8 mph 4 mph 46% 0 in
16:59 68.4 °F 47.3 °F 30 in Este 2 mph 4 mph 46.8% 0 in
17:04 68.4 °F 47.3 °F 30 in Este 2 mph 4 mph 47% 0 in
17:09 68.4 °F 47.3 °F 30 in Este 2 mph 2 mph 46.9% 0 in
17:14 68.4 °F 47.3 °F 30 in Este 0.6 mph   47% 0 in
17:19 68.4 °F 47.3 °F 30 in Calm     47% 0 in
17:24 68.2 °F 47.5 °F 30 in Calm     47.5% 0 in
17:29 68 °F 47.7 °F 30 in Calm     48% 0 in
17:34 67.8 °F 47.5 °F 30 in Calm     48% 0 in
17:39 67.6 °F 47.1 °F 30 in Calm     48% 0 in
17:44 67.5 °F 47.5 °F 30 in Calm     48.7% 0 in
17:49 67.3 °F 47.5 °F 30 in Calm     49% 0 in
17:54 67.1 °F 47.5 °F 30 in Calm   2.9 mph 49.4% 0 in
17:59 66.7 °F 48.4 °F 30 in Calm   5.2 mph 51.4% 0 in
18:04 66.2 °F 48.7 °F 30 in ESE 1.7 mph 5.2 mph 53.4% 0 in
18:09 65.7 °F 49.3 °F 30 in SE 2.4 mph 5 mph 55.4% 0 in
18:14 65.3 °F 49.6 °F 30 in SE 2.9 mph 5.2 mph 56.9% 0 in
18:19 64.9 °F 50 °F 30 in ESE 3.1 mph 5.2 mph 58.5% 0 in
18:24 64.6 °F 50.2 °F 30 in ESE 3.1 mph 5.9 mph 59.6% 0 in
18:29 64 °F 50.2 °F 30 in SE 3.1 mph 6.9 mph 61.1% 0 in
18:34 63.5 °F 50.4 °F 30 in SE 3.7 mph 7 mph 62.3% 0 in
18:39 63.1 °F 50.2 °F 30 in SE 4 mph 6 mph 63% 0 in
18:44 62.8 °F 50.5 °F 30 in SE 4 mph 6.9 mph 64% 0 in
18:49 62.4 °F 50.2 °F 30 in SE 4 mph 8.1 mph 64.3% 0 in
18:54 62.2 °F 50.4 °F 30 in SE 4.5 mph 8 mph 65% 0 in
18:59 62.2 °F 50.4 °F 30 in SSE 4.7 mph 7 mph 65% 0 in
19:04 62.2 °F 50.7 °F 30 in SSE 4.7 mph 8.1 mph 65.5% 0 in
19:09 62.2 °F 50.9 °F 30 in Sur 4.7 mph 8 mph 66.3% 0 in
19:14 62.2 °F 51.1 °F 30 in SSO 4.7 mph 7 mph 67% 0 in
19:19 62.1 °F 51.1 °F 30 in SSO 4.7 mph 7 mph 67.2% 0 in
19:24 62.1 °F 51.4 °F 30 in SO 3.9 mph 8.1 mph 68% 0 in
19:29 62.1 °F 51.3 °F 30 in SO 3.6 mph 8 mph 68% 0 in
19:34 61.9 °F 51.1 °F 30 in OSO 4.1 mph 9.2 mph 68% 0 in
19:39 61.3 °F 51.1 °F 30 in OSO 4.3 mph 9 mph 68.8% 0 in
19:44 61 °F 51.1 °F 30 in SO 5 mph 9.7 mph 70.1% 0 in
19:49 60.6 °F 51.3 °F 30 in SO 5.2 mph 10 mph 71% 0 in
19:54 60.6 °F 51.3 °F 30 in SO 5.7 mph 9.2 mph 71% 0 in
19:59 60.6 °F 50.9 °F 30 in NO 5.9 mph 9 mph 70% 0 in
20:04 60.3 °F 50.9 °F 30 in NO 3.8 mph 5 mph 71% 0 in
20:09 59.7 °F 50.5 °F 30 in NO 3.1 mph 5 mph 71.7% 0 in
20:14 59.4 °F 50.5 °F 30 in NO 2.4 mph 4 mph 72.5% 0 in
20:19 59 °F 50.5 °F 30 in ESE 2 mph 5.9 mph 73.6% 0 in
20:24 58.6 °F 50.5 °F 30 in SSE 2.7 mph 6.9 mph 74.5% 0 in
20:29 58.6 °F 50.7 °F 30 in Sur 2.9 mph 7.4 mph 75% 0 in
20:34 58.5 °F 50.5 °F 30 in Sur 3.9 mph 7 mph 75% 0 in
20:39 58.3 °F 50.7 °F 30 in SSO 4.3 mph 7 mph 75.9% 0 in
20:44 58.1 °F 50.5 °F 30 in SSO 4.1 mph 7 mph 76% 0 in
20:49 58.3 °F 50.7 °F 30 in SSO 4 mph 6 mph 76% 0 in
20:54 58.3 °F 50.7 °F 30 in SSO 3.4 mph 6 mph 76% 0 in
20:59 58.5 °F 50.7 °F 30 in Sur 3.1 mph 5 mph 75.3% 0 in
21:04 58.3 °F 50.4 °F 30 in Sur 3.1 mph 5.9 mph 75% 0 in
21:09 58.3 °F 50.4 °F 30 in Sur 3.1 mph 6 mph 75% 0 in
21:14 58.3 °F 50.2 °F 30 in Sur 3.5 mph 5.2 mph 74.3% 0 in
21:19 58.5 °F 50.2 °F 30 in Sur 3.6 mph 5 mph 74% 0 in
21:24 58.5 °F 50 °F 30 in Sur 3.2 mph 5.8 mph 73.7% 0 in
21:29 58.5 °F 49.8 °F 30 in Sur 3.1 mph 8.1 mph 73% 0 in
21:34 58.5 °F 50 °F 30 in Sur 3.7 mph 8 mph 73.3% 0 in
21:39 58.5 °F 50 °F 30 in SSE 4 mph 8.1 mph 74% 0 in
21:44 58.3 °F 50 °F 30 in Sur 4.5 mph 9.7 mph 74% 0 in
21:49 58.3 °F 49.8 °F 30 in Sur 4.7 mph 10 mph 73.5% 0 in
21:54 58.3 °F 49.6 °F 30 in Sur 5.2 mph 9 mph 73% 0 in
21:59 58.3 °F 49.6 °F 30 in Sur 5.4 mph 9 mph 73% 0 in
22:04 58.3 °F 49.6 °F 30 in Sur 5.3 mph 9 mph 72.8% 0 in
22:09 58.3 °F 49.3 °F 30 in Sur 5.2 mph 9 mph 72% 0 in
22:14 58.3 °F 49.3 °F 30 in Sur 4.6 mph 6.9 mph 72% 0 in
22:19 58.1 °F 49.1 °F 30 in SSO 4.3 mph 7 mph 72% 0 in
22:24 57.9 °F 48.9 °F 30 in SSO 4.1 mph 6 mph 72% 0 in
22:29 57.9 °F 48.9 °F 30 in SO 4 mph 5.4 mph 72% 0 in
22:34 57.9 °F 48.9 °F 30 in SSO 3.7 mph 6.9 mph 72% 0 in
22:39 57.9 °F 48.7 °F 30.1 in SO 3.6 mph 8.5 mph 71.7% 0 in
22:44 57.9 °F 48.6 °F 30.1 in SO 4.3 mph 9 mph 71% 0 in
22:49 57.9 °F 48.2 °F 30.1 in SO 4.7 mph 8.1 mph 70% 0 in
22:54 57.9 °F 48.2 °F 30.1 in SO 5 mph 8.1 mph 70% 0 in
22:59 57.7 °F 48 °F 30.1 in SO 5.2 mph 8.1 mph 70% 0 in
23:04 57.7 °F 47.7 °F 30.1 in SO 5.3 mph 9.2 mph 69.1% 0 in
23:09 57.7 °F 47.7 °F 30.1 in SO 5.4 mph 9.2 mph 69% 0 in
23:14 57.9 °F 47.5 °F 30.1 in SO 5.8 mph 9.2 mph 68% 0 in
23:19 57.9 °F 47.1 °F 30.1 in SO 5.9 mph 9.7 mph 67.4% 0 in
23:24 57.9 °F 47.1 °F 30.1 in SO 5.9 mph 10 mph 67% 0 in
23:29 57.9 °F 47.1 °F 30.1 in SSO 5.9 mph 10.4 mph 67% 0 in
23:34 57.9 °F 46.9 °F 30.1 in SO 6.1 mph 10.4 mph 67% 0 in
23:39 57.7 °F 46.9 °F 30.1 in SSO 6.2 mph 11.5 mph 67% 0 in
23:44 57.7 °F 46.9 °F 30.1 in SO 6 mph 12 mph 67% 0 in
23:49 57.7 °F 46.8 °F 30.1 in SO 5.9 mph 10.4 mph 67% 0 in
23:54 57.9 °F 46.6 °F 30.1 in SSO 5.4 mph 10 mph 66% 0 in
23:59 58.1 °F 46.8 °F 30.1 in SSO 5.2 mph 9.2 mph 65.7% 0 in
Murcia-Puente Tocinos, España
Compliments of Weather Underground - 3 mb

La estación de MeteoMurcia.com, publica sus datos en los siguientes proyectos:

Weather Underground PWS IMURCIAP2 Meteoclimatic www.awekas.at

W3Counter
Web Analytics